Upstream stations:
Downstream station:
SHEF ID: MGCO2 McGee Creek Reservoir
STATION TYPE: RESERVOIR
Flood Pool: Bottom = 577.10, Top = 595.50
PRECIP ELEVATION STORAGE INFLOW RELEASE VOLTAGE
in ft ac-ft cfs cfs volt
Ccp-Rev Ccp-Rev Ccp-Rev Rev-Regi Rev-Regi Ccp-Rev
(US/Central)
01/28 00:00 0.00 572.80 98425 0 10 14.26
01/28 01:00 0.00 572.81 98460 1 10 13.36
01/28 02:00 0.00 572.81 98460 1 10 13.37
01/28 03:00 0.00 572.81 98460 1 10 13.36
01/28 04:00 0.00 572.80 98425 7 10 13.37
01/28 05:00 0.00 572.80 98425 7 10 13.38
01/28 06:00 0.00 572.81 98460 6 10 14.33
01/28 07:00 0.00 572.81 98460 7 10 13.37
01/28 08:00 0.00 572.80 98425 6 10 13.65
01/28 09:00 0.00 572.80 98425 0 10 13.37
01/28 10:00 0.00 572.80 98425 0 10 13.37
01/28 11:00 0.00 572.81 98460 0 10 13.38
01/28 12:00 0.00 572.80 98425 0 10 13.39
01/28 13:00 0.00 572.82 98494 0 10 14.36
01/28 14:00 0.00 572.80 98425 0 10 13.36
01/28 15:00 0.00 572.81 98460 0 10 13.37
01/28 16:00 0.00 572.81 98460 0 10 13.37
01/28 17:00 0.00 572.81 98460 0 10 13.37
01/28 18:00 0.00 572.79 98391 0 10 13.40
01/28 19:00 0.00 572.80 98425 0 10 13.37
01/28 20:00 0.00 572.79 98391 0 10 13.37
01/28 21:00 0.00 572.79 98391 0 10 13.40
01/28 22:00 0.00 572.79 98391 0 10 13.69
01/28 23:00 0.00 572.79 98391 0 10 14.50